Time;durP1;ratioP1;P1;durP2;ratioP2;P2;SDS_P1;SDS_P2;PMS_P1;PMS_P2;Temp;Humidity;BMP_temperature;BMP_pressure;BME280_temperature;BME280_humidity;BME280_pressure;Samples;Min_cycle;Max_cycle;Signal;HPM_P1;HPM_P2
2020/12/07 00:01:05;;;;;;;35.70;16.27;;;3.20;99.90;;;;;;4900416;28;20235;-67
2020/12/07 00:03:34;;;;;;;30.63;14.73;;;3.10;99.90;;;;;;4910296;29;20233;-68
2020/12/07 00:06:04;;;;;;;30.13;14.50;;;3.10;99.90;;;;;;4916883;28;20210;-66
2020/12/07 00:08:31;;;;;;;33.47;15.33;;;3.10;99.90;;;;;;4910498;28;20204;-66
2020/12/07 00:10:58;;;;;;;31.63;14.60;;;3.10;99.90;;;;;;4913994;28;20225;-66
2020/12/07 00:13:25;;;;;;;34.77;15.37;;;3.10;99.90;;;;;;4995295;28;20219;-66
2020/12/07 00:15:52;;;;;;;33.53;15.57;;;3.10;99.90;;;;;;5009339;28;20231;-66
2020/12/07 00:18:18;;;;;;;28.00;13.80;;;3.10;99.90;;;;;;5009049;28;20337;-66
2020/12/07 00:20:45;;;;;;;30.13;13.60;;;3.10;99.90;;;;;;5009003;28;20215;-66
2020/12/07 00:23:12;;;;;;;24.97;12.70;;;3.10;99.90;;;;;;5006860;28;20316;-66
2020/12/07 00:25:41;;;;;;;28.60;13.60;;;3.00;99.90;;;;;;5005662;28;20286;-66
2020/12/07 00:28:09;;;;;;;26.20;13.20;;;3.00;99.90;;;;;;5005505;28;20575;-66
2020/12/07 00:30:35;;;;;;;32.23;15.40;;;3.00;99.90;;;;;;4991518;28;20212;-66
2020/12/07 00:33:02;;;;;;;27.33;13.07;;;3.00;99.90;;;;;;4969919;28;20263;-66
2020/12/07 00:35:29;;;;;;;36.00;15.23;;;2.90;99.90;;;;;;4952657;28;20329;-66
2020/12/07 00:37:56;;;;;;;33.30;15.30;;;3.00;99.90;;;;;;4965253;28;20220;-66
2020/12/07 00:40:22;;;;;;;30.50;14.73;;;3.00;99.90;;;;;;4969848;28;20323;-66
2020/12/07 00:42:49;;;;;;;29.30;13.80;;;2.90;99.90;;;;;;4970098;28;20550;-67
2020/12/07 00:45:17;;;;;;;27.97;14.40;;;2.90;99.90;;;;;;4957334;28;20209;-67
2020/12/07 00:47:47;;;;;;;34.53;14.83;;;2.90;99.90;;;;;;4950669;28;20734;-66
2020/12/07 00:50:13;;;;;;;30.20;14.40;;;2.90;99.90;;;;;;4946658;28;20209;-66
2020/12/07 00:52:41;;;;;;;26.07;13.70;;;3.00;99.90;;;;;;4958510;28;20799;-66
2020/12/07 00:55:07;;;;;;;33.10;14.57;;;3.00;99.90;;;;;;4996975;28;20251;-66
2020/12/07 00:57:34;;;;;;;30.90;12.97;;;2.90;99.90;;;;;;4984682;28;20212;-66
2020/12/07 01:00:02;;;;;;;23.23;12.93;;;2.90;99.90;;;;;;4990511;28;20261;-67
2020/12/07 01:02:34;;;;;;;25.03;12.30;;;2.90;99.90;;;;;;4973504;28;20207;-66
2020/12/07 01:05:01;;;;;;;23.90;12.00;;;2.90;99.90;;;;;;5067818;28;20197;-66
2020/12/07 01:07:28;;;;;;;22.93;11.97;;;3.00;99.90;;;;;;5013677;28;20253;-66
2020/12/07 01:09:55;;;;;;;26.03;12.80;;;3.00;99.90;;;;;;5026389;28;20667;-66
2020/12/07 01:12:23;;;;;;;26.93;12.60;;;3.00;99.90;;;;;;5008068;28;20215;-66
2020/12/07 01:14:51;;;;;;;29.23;14.40;;;3.00;99.90;;;;;;5008273;28;20234;-66
2020/12/07 01:17:18;;;;;;;31.00;16.13;;;3.00;99.90;;;;;;4882786;28;20208;-66
2020/12/07 01:19:49;;;;;;;30.33;16.13;;;3.00;99.90;;;;;;4988715;28;20250;-67
2020/12/07 01:22:23;;;;;;;28.13;16.17;;;3.00;99.90;;;;;;4976773;28;20203;-67
2020/12/07 01:24:50;;;;;;;25.53;13.97;;;3.10;99.90;;;;;;4968612;28;20200;-66
2020/12/07 01:27:37;;;;;;;25.33;11.30;;;3.10;99.90;;;;;;4947974;29;20810;-67
2020/12/07 01:30:05;;;;;;;22.47;11.77;;;3.20;99.90;;;;;;4926160;29;20213;-67
2020/12/07 01:32:34;;;;;;;20.53;11.53;;;3.20;99.90;;;;;;4930369;29;20675;-67
2020/12/07 01:35:01;;;;;;;23.57;12.60;;;3.20;99.90;;;;;;4929863;29;20836;-67
2020/12/07 01:37:28;;;;;;;24.87;12.13;;;3.20;99.90;;;;;;4925405;28;20214;-67
2020/12/07 01:39:55;;;;;;;23.33;12.03;;;3.20;99.90;;;;;;4952416;28;20212;-67
2020/12/07 01:42:22;;;;;;;24.57;12.67;;;3.20;99.90;;;;;;4935221;29;20217;-66
2020/12/07 01:44:52;;;;;;;26.83;14.20;;;3.20;99.90;;;;;;4927931;29;20356;-67
2020/12/07 01:47:25;;;;;;;28.43;15.87;;;3.20;99.90;;;;;;4949170;28;20217;-66
2020/12/07 01:49:57;;;;;;;25.37;14.27;;;3.30;99.90;;;;;;4966598;28;20550;-67
2020/12/07 01:52:27;;;;;;;25.63;14.77;;;3.20;99.90;;;;;;4936718;29;20252;-66
2020/12/07 01:54:55;;;;;;;31.77;15.77;;;3.30;99.90;;;;;;4932876;29;20295;-67
2020/12/07 01:57:27;;;;;;;30.13;15.20;;;3.30;99.90;;;;;;4903504;29;20604;-66
2020/12/07 01:59:59;;;;;;;32.50;15.03;;;3.20;99.90;;;;;;4931539;29;20380;-66
2020/12/07 02:02:26;;;;;;;26.33;13.67;;;3.20;99.90;;;;;;4959918;28;20221;-66
2020/12/07 02:04:53;;;;;;;23.43;12.97;;;3.20;99.90;;;;;;4991703;28;20215;-66
2020/12/07 02:07:21;;;;;;;22.43;12.20;;;3.20;99.90;;;;;;4972959;28;20212;-66
2020/12/07 02:09:54;;;;;;;21.70;11.60;;;3.10;99.90;;;;;;4964868;28;20215;-66
2020/12/07 02:12:21;;;;;;;21.97;11.60;;;3.20;99.90;;;;;;4978880;28;20211;-66
2020/12/07 02:14:49;;;;;;;22.43;12.07;;;3.10;99.90;;;;;;5019709;28;20227;-67
2020/12/07 02:17:16;;;;;;;24.10;12.47;;;3.10;99.90;;;;;;5024644;28;20208;-67
2020/12/07 02:19:43;;;;;;;20.97;11.37;;;3.10;99.90;;;;;;5003856;28;20258;-66
2020/12/07 02:22:12;;;;;;;26.90;12.83;;;3.10;99.90;;;;;;5011039;28;20202;-67
2020/12/07 02:24:59;;;;;;;21.47;11.13;;;3.10;99.90;;;;;;4909212;29;20615;-67
2020/12/07 02:27:30;;;;;;;21.90;11.10;;;3.10;99.90;;;;;;4891199;29;20214;-65
2020/12/07 02:29:57;;;;;;;23.73;11.97;;;3.10;99.90;;;;;;4878702;28;20230;-67
2020/12/07 02:32:23;;;;;;;18.33;10.37;;;3.10;99.90;;;;;;4881818;28;20225;-67
2020/12/07 02:35:06;;;;;;;21.53;10.60;;;3.10;99.90;;;;;;4893552;29;20593;-68
2020/12/07 02:37:44;;;;;;;19.77;10.60;;;3.10;99.90;;;;;;4953261;28;20250;-67
2020/12/07 02:40:11;;;;;;;18.00;10.33;;;3.00;99.90;;;;;;5000321;28;20203;-68
2020/12/07 02:42:40;;;;;;;18.60;10.07;;;3.00;99.90;;;;;;5008941;28;20218;-67
2020/12/07 02:45:11;;;;;;;19.90;10.57;;;3.00;99.90;;;;;;4996935;28;20210;-67
2020/12/07 02:47:40;;;;;;;23.33;10.80;;;3.00;99.90;;;;;;5005588;28;20594;-67
2020/12/07 02:50:08;;;;;;;21.87;10.70;;;3.00;99.90;;;;;;4998538;28;20686;-67
2020/12/07 02:52:36;;;;;;;19.93;11.10;;;2.90;99.90;;;;;;4976547;28;20615;-68
2020/12/07 02:55:06;;;;;;;22.77;10.50;;;2.90;99.90;;;;;;4990553;28;20347;-67
2020/12/07 02:57:34;;;;;;;17.73;9.73;;;2.90;99.90;;;;;;4940127;29;20206;-67
2020/12/07 03:00:01;;;;;;;19.47;10.60;;;2.90;99.90;;;;;;4917177;29;20671;-67
2020/12/07 03:02:32;;;;;;;19.60;11.23;;;2.90;99.90;;;;;;4921855;28;20214;-67
2020/12/07 03:04:59;;;;;;;23.43;11.63;;;2.90;99.90;;;;;;4950315;29;20291;-66
2020/12/07 03:07:26;;;;;;;23.57;12.00;;;2.90;99.90;;;;;;4920097;29;20206;-67
2020/12/07 03:09:57;;;;;;;19.37;10.70;;;2.90;99.90;;;;;;4950342;29;20275;-66
2020/12/07 03:12:27;;;;;;;17.17;9.47;;;2.90;99.90;;;;;;4913736;29;20206;-67
2020/12/07 03:14:57;;;;;;;20.60;10.83;;;3.00;99.90;;;;;;4833090;29;20338;-67
2020/12/07 03:17:26;;;;;;;27.30;11.83;;;3.00;99.90;;;;;;4832648;29;20213;-66
2020/12/07 03:19:52;;;;;;;20.23;10.83;;;3.00;99.90;;;;;;4951073;29;20252;-67
2020/12/07 03:22:19;;;;;;;21.60;12.07;;;3.00;99.90;;;;;;4938266;29;20206;-67
2020/12/07 03:24:46;;;;;;;22.20;12.03;;;3.00;99.90;;;;;;4940550;29;20201;-67
2020/12/07 03:27:13;;;;;;;25.20;12.83;;;3.00;99.90;;;;;;4931607;29;20376;-68
2020/12/07 03:29:41;;;;;;;22.77;12.37;;;3.00;99.90;;;;;;4963138;28;20236;-68
2020/12/07 03:32:08;;;;;;;21.10;12.07;;;3.10;99.90;;;;;;4964600;28;20197;-67
2020/12/07 03:34:37;;;;;;;21.50;11.40;;;3.00;99.90;;;;;;4950270;28;20646;-67
2020/12/07 03:37:04;;;;;;;22.77;11.77;;;3.00;99.90;;;;;;4939726;29;20703;-68
2020/12/07 03:39:56;;;;;;;21.73;10.83;;;3.00;99.90;;;;;;4931222;29;20240;-66
2020/12/07 03:42:26;;;;;;;20.63;11.70;;;3.00;99.90;;;;;;4895624;29;20215;-66
2020/12/07 03:44:56;;;;;;;18.47;10.93;;;3.00;99.90;;;;;;4910641;29;20295;-66
2020/12/07 03:47:24;;;;;;;22.97;11.87;;;3.00;99.90;;;;;;4923573;29;20202;-65
2020/12/07 03:49:51;;;;;;;23.83;12.93;;;3.00;99.90;;;;;;4919605;29;20214;-65
2020/12/07 03:52:20;;;;;;;25.70;13.00;;;3.00;99.90;;;;;;4888820;29;20272;-66
2020/12/07 03:54:47;;;;;;;23.40;12.13;;;3.00;99.90;;;;;;4907025;29;20222;-65
2020/12/07 03:57:15;;;;;;;24.77;12.93;;;3.00;99.90;;;;;;4896648;29;20323;-66
2020/12/07 03:59:43;;;;;;;26.27;12.30;;;3.00;99.90;;;;;;4896444;29;20203;-66
2020/12/07 04:02:11;;;;;;;25.43;11.73;;;3.00;99.90;;;;;;4923322;29;20591;-65
2020/12/07 04:04:43;;;;;;;19.73;10.93;;;3.00;99.90;;;;;;4908400;29;20210;-65
2020/12/07 04:07:10;;;;;;;18.10;10.43;;;3.00;99.90;;;;;;4894817;29;20249;-65
2020/12/07 04:09:37;;;;;;;19.07;10.60;;;3.00;99.90;;;;;;4903225;29;20217;-66
2020/12/07 04:12:03;;;;;;;20.00;10.53;;;3.00;99.90;;;;;;4914237;29;20698;-66
2020/12/07 04:14:30;;;;;;;17.57;9.77;;;3.00;99.90;;;;;;4948542;29;20689;-66
2020/12/07 04:16:57;;;;;;;18.97;10.50;;;3.00;99.90;;;;;;4924798;29;20254;-66
2020/12/07 04:19:24;;;;;;;17.67;9.60;;;3.00;99.90;;;;;;4926277;29;20207;-66
2020/12/07 04:21:51;;;;;;;19.47;9.63;;;3.00;99.90;;;;;;4906644;29;20763;-66
2020/12/07 04:24:17;;;;;;;18.20;9.47;;;3.10;99.90;;;;;;4883138;29;20203;-66
2020/12/07 04:26:44;;;;;;;19.80;9.90;;;3.10;99.90;;;;;;4893968;29;20744;-66
2020/12/07 04:29:11;;;;;;;25.67;11.97;;;3.20;99.90;;;;;;4877950;29;20667;-66
2020/12/07 04:31:38;;;;;;;21.53;10.83;;;3.20;99.90;;;;;;4891444;29;20217;-66
2020/12/07 04:34:04;;;;;;;34.40;14.10;;;3.20;99.90;;;;;;4828175;29;20233;-66
2020/12/07 04:36:32;;;;;;;40.00;15.10;;;3.30;99.90;;;;;;4848574;29;20232;-66
2020/12/07 04:38:59;;;;;;;53.03;16.47;;;3.30;99.90;;;;;;4852021;29;20231;-66
2020/12/07 04:41:25;;;;;;;44.50;13.93;;;3.40;99.90;;;;;;4872594;29;20227;-66
2020/12/07 04:43:53;;;;;;;29.13;11.47;;;3.40;99.90;;;;;;4871968;28;20657;-66
2020/12/07 04:46:20;;;;;;;33.10;13.77;;;3.40;99.90;;;;;;4903137;29;20214;-66
2020/12/07 04:48:52;;;;;;;38.40;14.63;;;3.50;99.90;;;;;;4894195;29;20302;-67
2020/12/07 04:51:19;;;;;;;34.93;13.30;;;3.50;99.90;;;;;;4941632;28;20214;-67
2020/12/07 04:53:48;;;;;;;24.97;11.07;;;3.50;99.90;;;;;;4944925;28;20233;-67
2020/12/07 04:56:15;;;;;;;23.87;10.27;;;3.50;99.90;;;;;;4985131;28;20238;-67
2020/12/07 04:58:44;;;;;;;25.40;11.00;;;3.60;99.90;;;;;;4949528;28;20514;-68
2020/12/07 05:01:10;;;;;;;26.27;11.03;;;3.60;99.90;;;;;;4934760;29;20221;-67
2020/12/07 05:03:37;;;;;;;33.90;12.73;;;3.60;99.90;;;;;;5008674;28;20237;-68
2020/12/07 05:06:05;;;;;;;29.03;11.73;;;3.60;99.90;;;;;;5007953;28;20211;-67
2020/12/07 05:08:32;;;;;;;29.23;11.90;;;3.70;99.90;;;;;;5007137;28;20206;-67
2020/12/07 05:11:02;;;;;;;24.43;10.90;;;3.70;99.90;;;;;;4988814;28;20307;-68
2020/12/07 05:13:34;;;;;;;32.33;14.13;;;3.80;99.90;;;;;;4996883;28;20242;-68
2020/12/07 05:16:01;;;;;;;35.40;14.33;;;3.80;99.90;;;;;;4991394;28;20722;-66
2020/12/07 05:18:28;;;;;;;29.87;12.63;;;3.90;99.90;;;;;;4989182;28;20656;-67
2020/12/07 05:20:55;;;;;;;23.90;10.97;;;3.90;99.90;;;;;;4988863;28;20303;-66
2020/12/07 05:23:22;;;;;;;20.90;9.70;;;3.90;99.90;;;;;;4987186;28;20282;-66
2020/12/07 05:25:48;;;;;;;22.10;10.90;;;3.90;99.90;;;;;;4988889;28;20216;-67
2020/12/07 05:28:22;;;;;;;23.97;10.60;;;4.00;99.90;;;;;;4899877;28;20219;-67
2020/12/07 05:30:50;;;;;;;28.87;12.90;;;4.00;99.90;;;;;;4908244;29;20245;-67
2020/12/07 05:33:18;;;;;;;34.20;13.27;;;4.10;99.90;;;;;;4943450;29;20213;-66
2020/12/07 05:35:51;;;;;;;28.10;12.20;;;4.10;99.90;;;;;;4947201;28;20609;-66
2020/12/07 05:38:18;;;;;;;25.37;11.20;;;4.10;99.90;;;;;;4946868;29;20298;-66
2020/12/07 05:40:46;;;;;;;26.00;11.73;;;4.10;99.90;;;;;;4945721;28;20216;-65
2020/12/07 05:43:13;;;;;;;25.10;11.97;;;4.10;99.90;;;;;;5071355;28;20205;-65
2020/12/07 05:45:42;;;;;;;28.50;13.73;;;4.10;99.90;;;;;;5071876;28;20279;-65
2020/12/07 05:48:10;;;;;;;29.23;12.97;;;4.20;99.90;;;;;;5067742;28;20201;-66
2020/12/07 05:50:43;;;;;;;30.23;13.87;;;4.20;99.90;;;;;;5028636;28;20268;-66
2020/12/07 05:53:11;;;;;;;29.07;13.47;;;4.20;99.90;;;;;;5027641;28;20226;-65
2020/12/07 05:55:38;;;;;;;32.20;14.70;;;4.20;99.90;;;;;;5022224;28;20268;-66
2020/12/07 05:58:05;;;;;;;27.20;13.73;;;4.20;99.90;;;;;;5029720;28;20748;-65
2020/12/07 06:00:33;;;;;;;28.63;13.90;;;4.20;99.90;;;;;;5031611;28;20553;-65
2020/12/07 06:03:03;;;;;;;24.73;12.83;;;4.30;99.90;;;;;;5018095;28;20206;-66
2020/12/07 06:05:30;;;;;;;35.17;13.73;;;4.30;99.90;;;;;;5021013;28;20211;-65
2020/12/07 06:08:03;;;;;;;28.07;12.93;;;4.30;99.90;;;;;;5007677;28;20206;-65
2020/12/07 06:10:35;;;;;;;25.63;12.87;;;4.30;99.90;;;;;;5012027;28;20211;-65
2020/12/07 06:13:05;;;;;;;29.13;12.97;;;4.30;99.90;;;;;;5011803;28;20238;-65
2020/12/07 06:15:32;;;;;;;27.43;12.70;;;4.30;99.90;;;;;;5024971;28;20646;-66
2020/12/07 06:17:59;;;;;;;27.67;12.70;;;4.30;99.90;;;;;;5031319;28;20229;-66
2020/12/07 06:20:36;;;;;;;33.90;14.43;;;4.30;99.90;;;;;;5065074;28;20223;-66
2020/12/07 06:23:03;;;;;;;33.80;14.87;;;4.30;99.90;;;;;;5089519;28;20203;-65
2020/12/07 06:25:31;;;;;;;29.10;12.77;;;4.30;99.90;;;;;;5091673;28;20195;-64
2020/12/07 06:28:02;;;;;;;27.07;12.03;;;4.20;99.90;;;;;;5091566;28;20205;-65
2020/12/07 06:30:35;;;;;;;34.33;14.77;;;4.20;99.90;;;;;;5088957;28;20283;-66
2020/12/07 06:33:06;;;;;;;36.97;14.70;;;4.20;99.90;;;;;;5090582;28;20324;-67
2020/12/07 06:35:41;;;;;;;34.90;13.90;;;4.20;99.90;;;;;;5050447;28;20279;-67
2020/12/07 06:38:07;;;;;;;39.23;15.40;;;4.20;99.90;;;;;;5046052;28;20271;-68
2020/12/07 06:40:37;;;;;;;33.77;14.17;;;4.20;99.90;;;;;;5029465;28;20264;-67
2020/12/07 06:43:17;;;;;;;32.90;13.90;;;4.20;99.90;;;;;;5029823;28;20288;-67
2020/12/07 06:45:44;;;;;;;28.83;13.77;;;4.20;99.90;;;;;;4999864;28;20207;-66
2020/12/07 06:48:12;;;;;;;25.53;12.33;;;4.20;99.90;;;;;;5009560;28;20263;-66
2020/12/07 06:50:42;;;;;;;21.83;11.87;;;4.30;99.90;;;;;;5011065;28;20233;-66
2020/12/07 06:56:03;;;;;;;19.13;9.77;;;4.40;99.90;;;;;;4922719;28;20371;-67
2020/12/07 06:58:31;;;;;;;20.57;9.93;;;4.30;99.90;;;;;;4994612;28;20719;-66
2020/12/07 07:01:11;;;;;;;18.57;8.53;;;4.30;99.90;;;;;;5002868;28;20211;-67
2020/12/07 07:03:47;;;;;;;16.13;9.00;;;4.30;99.90;;;;;;4995294;28;20219;-67
2020/12/07 07:06:18;;;;;;;15.03;8.53;;;4.30;99.90;;;;;;4984085;28;20261;-66
2020/12/07 07:08:47;;;;;;;15.27;8.83;;;4.30;99.90;;;;;;4992290;28;20822;-66
2020/12/07 07:11:14;;;;;;;18.63;9.47;;;4.30;99.90;;;;;;4952910;28;20209;-66
2020/12/07 07:13:47;;;;;;;17.30;10.00;;;4.30;99.90;;;;;;4943130;29;20252;-66
2020/12/07 07:16:14;;;;;;;17.77;9.27;;;4.30;99.90;;;;;;4965595;28;20242;-66
2020/12/07 07:18:42;;;;;;;21.67;11.17;;;4.30;99.90;;;;;;5004009;28;20254;-67
2020/12/07 07:21:09;;;;;;;20.27;10.83;;;4.30;99.90;;;;;;4996429;28;20242;-67
2020/12/07 07:23:38;;;;;;;19.50;10.50;;;4.30;99.90;;;;;;5001468;28;20234;-67
2020/12/07 07:26:20;;;;;;;26.43;9.50;;;4.40;99.90;;;;;;5006847;28;20662;-67
2020/12/07 07:28:47;;;;;;;18.33;7.87;;;4.40;99.90;;;;;;4993868;28;20306;-66
2020/12/07 07:31:15;;;;;;;19.23;8.03;;;4.50;99.90;;;;;;4938473;28;20213;-67
2020/12/07 07:33:41;;;;;;;18.90;9.00;;;4.60;99.90;;;;;;4944739;29;20197;-67
2020/12/07 07:36:19;;;;;;;20.70;9.20;;;4.60;99.90;;;;;;4941355;28;20239;-67
2020/12/07 07:38:51;;;;;;;20.80;9.77;;;4.70;99.90;;;;;;4962765;28;20233;-67
2020/12/07 07:41:22;;;;;;;23.77;10.27;;;4.70;99.90;;;;;;5057432;28;20210;-67
2020/12/07 07:43:49;;;;;;;27.33;11.33;;;4.80;99.90;;;;;;5074950;28;20648;-67
2020/12/07 07:46:16;;;;;;;30.73;12.23;;;4.80;99.90;;;;;;5078642;28;20727;-67
2020/12/07 07:48:50;;;;;;;34.47;14.47;;;4.90;99.90;;;;;;5065434;28;20207;-67
2020/12/07 07:54:39;;;;;;;26.20;11.17;;;5.00;99.90;;;;;;5005322;28;20236;-67
2020/12/07 08:06:28;;;;;;;22.93;10.17;;;5.40;99.90;;;;;;5023778;28;20268;-67
2020/12/07 08:17:22;;;;;;;16.47;9.10;;;5.30;99.90;;;;;;5085490;28;20192;-67
2020/12/07 08:19:51;;;;;;;19.83;9.93;;;5.40;99.90;;;;;;5084351;28;20203;-67
2020/12/07 08:22:20;;;;;;;20.40;10.13;;;5.40;99.90;;;;;;5079641;28;20198;-67
2020/12/07 08:24:55;;;;;;;19.30;9.57;;;5.40;99.90;;;;;;5082807;28;20212;-67
2020/12/07 08:27:22;;;;;;;14.20;7.90;;;5.40;99.90;;;;;;5088629;28;20192;-67
2020/12/07 08:29:49;;;;;;;17.57;8.50;;;5.50;99.90;;;;;;5058325;28;20244;-67
2020/12/07 08:32:23;;;;;;;16.67;8.33;;;6.40;99.90;;;;;;5035523;28;20218;-67
2020/12/07 08:34:50;;;;;;;15.83;8.00;;;5.60;99.90;;;;;;5028430;28;20588;-67
2020/12/07 08:37:17;;;;;;;13.33;6.70;;;5.60;99.90;;;;;;5035525;28;20303;-67
2020/12/07 08:39:44;;;;;;;12.70;6.73;;;5.70;99.90;;;;;;5034693;28;20229;-68
2020/12/07 08:42:11;;;;;;;14.67;7.60;;;5.70;99.90;;;;;;5040722;28;20224;-67
2020/12/07 08:44:38;;;;;;;11.43;6.83;;;5.70;99.90;;;;;;5035793;28;20226;-67
2020/12/07 08:47:07;;;;;;;17.40;7.77;;;5.70;99.90;;;;;;5028027;28;20211;-68
2020/12/07 08:49:35;;;;;;;12.73;7.37;;;5.70;99.90;;;;;;5035704;28;20243;-66
2020/12/07 08:52:01;;;;;;;15.23;8.07;;;5.80;99.90;;;;;;5026909;28;20206;-66
2020/12/07 08:54:28;;;;;;;12.80;6.73;;;5.80;99.90;;;;;;5029984;28;20264;-67
2020/12/07 08:56:55;;;;;;;19.17;8.80;;;6.00;99.90;;;;;;5028474;28;20476;-67
2020/12/07 08:59:22;;;;;;;13.90;7.17;;;6.10;99.90;;;;;;5036009;28;20213;-67
2020/12/07 09:01:49;;;;;;;16.03;8.93;;;6.20;99.90;;;;;;5068651;28;20261;-67
2020/12/07 09:04:18;;;;;;;25.13;10.70;;;6.30;99.90;;;;;;5093070;28;20209;-67
2020/12/07 09:06:49;;;;;;;30.53;11.83;;;6.30;99.90;;;;;;5074813;28;20195;-67
2020/12/07 09:09:15;;;;;;;37.47;14.00;;;6.30;99.90;;;;;;5090524;28;20562;-67
2020/12/07 09:11:42;;;;;;;50.37;16.43;;;6.40;99.90;;;;;;5090172;28;20287;-67
2020/12/07 09:14:10;;;;;;;51.70;15.47;;;6.40;99.90;;;;;;5091789;28;20233;-66
2020/12/07 09:16:37;;;;;;;48.50;16.80;;;6.40;99.90;;;;;;5085812;28;20288;-67
2020/12/07 09:19:04;;;;;;;44.60;15.27;;;6.50;99.90;;;;;;5092307;28;20281;-67
2020/12/07 09:21:31;;;;;;;46.53;15.33;;;6.50;99.90;;;;;;5101006;28;20233;-67
2020/12/07 09:23:58;;;;;;;43.67;14.93;;;6.60;99.90;;;;;;5096439;28;20202;-67
2020/12/07 09:26:25;;;;;;;46.77;16.47;;;6.70;99.90;;;;;;5088780;28;20201;-67
2020/12/07 09:28:59;;;;;;;38.13;15.30;;;6.70;99.90;;;;;;5089609;28;20214;-67
2020/12/07 09:31:26;;;;;;;34.57;13.53;;;6.70;99.90;;;;;;5089401;28;20645;-67
2020/12/07 09:34:03;;;;;;;25.73;11.30;;;6.80;99.90;;;;;;5047815;28;20250;-67
2020/12/07 09:36:33;;;;;;;27.17;12.17;;;6.80;99.90;;;;;;5006416;28;20225;-67
2020/12/07 09:39:00;;;;;;;30.70;11.43;;;6.60;99.90;;;;;;4986770;28;20209;-67
2020/12/07 09:41:27;;;;;;;29.00;12.40;;;7.00;99.90;;;;;;5003827;28;20217;-68
2020/12/07 09:43:54;;;;;;;24.47;11.27;;;7.00;99.90;;;;;;5006010;28;20228;-68
2020/12/07 09:46:20;;;;;;;33.67;13.37;;;7.10;99.90;;;;;;5003603;28;20621;-66
2020/12/07 09:48:47;;;;;;;28.43;13.07;;;7.20;99.90;;;;;;5005772;28;20203;-67
2020/12/07 09:51:14;;;;;;;27.57;12.00;;;7.20;99.90;;;;;;5006865;28;20222;-67
2020/12/07 09:53:41;;;;;;;29.10;12.47;;;7.30;99.90;;;;;;4982857;28;20238;-67
2020/12/07 09:56:08;;;;;;;21.50;10.97;;;7.30;99.90;;;;;;4985673;28;20211;-67
2020/12/07 09:58:36;;;;;;;24.90;11.43;;;7.30;99.90;;;;;;4984584;28;20219;-67
2020/12/07 10:01:02;;;;;;;22.90;11.43;;;7.30;99.90;;;;;;4988469;28;20562;-67
2020/12/07 10:03:29;;;;;;;29.93;12.43;;;7.30;99.90;;;;;;5006650;28;20200;-67
2020/12/07 10:05:58;;;;;;;31.30;13.80;;;7.30;99.90;;;;;;4984312;28;20636;-68
2020/12/07 10:08:25;;;;;;;33.57;14.13;;;7.30;99.90;;;;;;4981672;28;20676;-65
2020/12/07 10:10:54;;;;;;;28.40;11.93;;;7.20;99.90;;;;;;4983328;28;20207;-66
2020/12/07 10:13:21;;;;;;;27.57;11.70;;;7.20;99.90;;;;;;4967184;28;20239;-68
2020/12/07 10:15:48;;;;;;;26.60;10.80;;;7.30;99.90;;;;;;4966355;28;20298;-66
2020/12/07 10:18:14;;;;;;;25.43;11.10;;;7.40;99.90;;;;;;4969240;28;20518;-66
2020/12/07 10:20:42;;;;;;;21.47;10.57;;;7.40;99.90;;;;;;4969469;28;20208;-66
2020/12/07 10:23:09;;;;;;;26.37;11.60;;;7.50;99.90;;;;;;4968219;28;20587;-67
2020/12/07 10:25:36;;;;;;;22.23;10.90;;;7.50;99.90;;;;;;4996632;28;20568;-67
2020/12/07 10:28:03;;;;;;;21.63;11.13;;;7.60;99.90;;;;;;4988759;28;20218;-66
2020/12/07 10:30:30;;;;;;;21.07;10.03;;;7.50;99.90;;;;;;4987918;28;20283;-67
2020/12/07 10:32:57;;;;;;;21.87;10.67;;;7.50;99.90;;;;;;5005717;28;20219;-66
2020/12/07 10:35:35;;;;;;;24.50;11.47;;;7.50;99.90;;;;;;5031457;28;20207;-67
2020/12/07 10:38:09;;;;;;;24.13;10.80;;;8.40;99.90;;;;;;5040634;28;20304;-67
2020/12/07 10:40:36;;;;;;;17.97;9.80;;;7.50;99.90;;;;;;5001559;28;20245;-67
2020/12/07 10:43:03;;;;;;;20.13;9.17;;;7.50;99.90;;;;;;5007282;28;20245;-67
2020/12/07 10:45:30;;;;;;;21.03;10.07;;;7.50;99.90;;;;;;5024103;28;20775;-66
2020/12/07 10:47:58;;;;;;;20.20;9.33;;;7.50;99.90;;;;;;5001065;28;20697;-66
2020/12/07 10:50:37;;;;;;;18.80;8.87;;;7.50;99.90;;;;;;5004972;28;20215;-68
2020/12/07 10:53:07;;;;;;;21.57;9.80;;;7.50;99.90;;;;;;5003445;28;20219;-67
2020/12/07 10:55:34;;;;;;;23.00;10.40;;;7.50;99.90;;;;;;4990759;28;20230;-67
2020/12/07 10:58:00;;;;;;;22.33;10.03;;;7.60;99.90;;;;;;4993831;28;20207;-67
2020/12/07 11:00:28;;;;;;;22.33;10.13;;;7.60;99.90;;;;;;4969629;28;20200;-66
2020/12/07 11:02:55;;;;;;;22.43;10.97;;;7.60;99.90;;;;;;4969832;28;20228;-68
2020/12/07 11:05:21;;;;;;;28.53;12.73;;;7.60;99.90;;;;;;4955842;28;20212;-66
2020/12/07 11:07:51;;;;;;;25.37;12.07;;;7.60;99.90;;;;;;4984500;28;20212;-66
2020/12/07 11:10:18;;;;;;;30.33;13.70;;;7.60;99.90;;;;;;4988471;28;20637;-67
2020/12/07 11:12:49;;;;;;;48.37;18.20;;;7.60;99.90;;;;;;5006603;28;21752;-66
2020/12/07 11:15:23;;;;;;;37.20;15.50;;;7.70;99.90;;;;;;4987994;28;20235;-66
2020/12/07 11:17:51;;;;;;;28.87;13.70;;;7.70;99.90;;;;;;4969648;28;20222;-67
2020/12/07 11:20:23;;;;;;;27.63;12.60;;;7.70;99.90;;;;;;5026478;28;20309;-67
2020/12/07 11:22:50;;;;;;;31.40;13.23;;;7.80;99.90;;;;;;5023722;28;20289;-68
2020/12/07 11:25:17;;;;;;;26.67;13.37;;;7.80;99.90;;;;;;5024818;28;20211;-67
2020/12/07 11:27:44;;;;;;;24.20;11.33;;;7.90;99.90;;;;;;5027821;28;20214;-68
2020/12/07 11:30:11;;;;;;;20.83;11.57;;;7.90;99.90;;;;;;5015900;28;20463;-68
2020/12/07 11:32:37;;;;;;;19.90;10.43;;;8.00;99.90;;;;;;5057225;28;20232;-68
2020/12/07 11:35:12;;;;;;;24.23;11.13;;;8.00;99.90;;;;;;5054593;28;20213;-67
2020/12/07 11:37:41;;;;;;;24.93;12.50;;;8.10;99.90;;;;;;5064584;28;20215;-67
2020/12/07 11:40:14;;;;;;;23.00;12.10;;;8.00;99.90;;;;;;5065181;28;20228;-66
2020/12/07 11:42:47;;;;;;;21.93;11.40;;;8.10;99.90;;;;;;5033845;28;20208;-67
2020/12/07 11:45:27;;;;;;;20.90;9.80;;;8.10;99.90;;;;;;5038308;28;20249;-68
2020/12/07 11:47:57;;;;;;;21.33;10.37;;;8.10;99.90;;;;;;5005413;28;20203;-66
2020/12/07 11:50:30;;;;;;;20.20;9.40;;;8.00;99.90;;;;;;5005779;28;20300;-66
2020/12/07 11:52:57;;;;;;;20.10;10.90;;;8.00;99.90;;;;;;5001744;28;20961;-66
2020/12/07 11:55:33;;;;;;;20.43;10.03;;;8.00;99.90;;;;;;5003082;28;20685;-66
2020/12/07 11:57:59;;;;;;;19.93;9.97;;;8.00;99.90;;;;;;5007008;28;20218;-68
2020/12/07 12:00:28;;;;;;;22.27;10.67;;;8.00;99.90;;;;;;5006544;28;20207;-67
2020/12/07 12:02:55;;;;;;;26.03;11.80;;;8.00;99.90;;;;;;5007121;28;20209;-67
2020/12/07 12:05:25;;;;;;;27.43;12.17;;;7.90;99.90;;;;;;5005234;28;20238;-66
2020/12/07 12:07:53;;;;;;;23.88;13.18;;;8.00;99.90;;;;;;4964721;28;20865;-66
2020/12/07 12:10:20;;;;;;;22.30;11.73;;;8.00;99.90;;;;;;4949411;28;20627;-66
2020/12/07 12:12:47;;;;;;;24.03;11.57;;;8.00;99.90;;;;;;4945934;28;20237;-66
2020/12/07 12:15:22;;;;;;;18.73;10.23;;;8.10;99.90;;;;;;4944061;29;20648;-67
2020/12/07 12:18:07;;;;;;;19.87;10.10;;;8.10;99.90;;;;;;4941617;28;20285;-66
2020/12/07 12:20:42;;;;;;;17.33;9.73;;;8.10;99.90;;;;;;4955687;28;20214;-68
2020/12/07 12:23:15;;;;;;;20.70;10.03;;;8.10;99.90;;;;;;5005708;28;20290;-67
2020/12/07 12:25:41;;;;;;;22.23;9.97;;;8.50;99.90;;;;;;5004941;28;20582;-67
2020/12/07 12:28:09;;;;;;;20.20;10.90;;;8.10;99.90;;;;;;4986684;28;20655;-66
2020/12/07 12:30:39;;;;;;;19.17;10.63;;;8.10;99.90;;;;;;4972115;28;20208;-67
2020/12/07 12:33:06;;;;;;;22.03;10.90;;;8.10;99.90;;;;;;4965649;28;20220;-69
2020/12/07 12:35:33;;;;;;;24.87;11.80;;;8.10;99.90;;;;;;4989881;28;20199;-66
2020/12/07 12:38:00;;;;;;;22.50;11.43;;;8.20;99.90;;;;;;4985933;28;20230;-69
2020/12/07 12:40:27;;;;;;;23.27;11.50;;;8.10;99.90;;;;;;4985887;28;20570;-68
2020/12/07 12:42:54;;;;;;;25.60;11.80;;;8.10;99.90;;;;;;5045952;28;20217;-68
2020/12/07 12:45:24;;;;;;;20.97;10.77;;;8.10;99.90;;;;;;5026106;28;20194;-68
2020/12/07 12:47:51;;;;;;;23.70;11.83;;;8.10;99.90;;;;;;5020578;28;20214;-67
2020/12/07 12:50:18;;;;;;;26.87;11.63;;;8.20;99.90;;;;;;5010766;28;20223;-67
2020/12/07 12:52:45;;;;;;;28.53;12.53;;;8.10;99.90;;;;;;4984569;28;20203;-68
2020/12/07 12:55:12;;;;;;;24.70;11.53;;;8.10;99.90;;;;;;4978112;28;20219;-67
2020/12/07 12:57:39;;;;;;;23.20;11.03;;;8.10;99.90;;;;;;4967443;28;20295;-67
2020/12/07 13:00:08;;;;;;;24.23;12.10;;;8.10;99.90;;;;;;4969144;28;20642;-67
2020/12/07 13:02:35;;;;;;;27.67;12.97;;;8.10;99.90;;;;;;4964724;28;20221;-67
2020/12/07 13:05:01;;;;;;;29.23;13.33;;;8.10;99.90;;;;;;4974641;28;20208;-68
2020/12/07 13:07:33;;;;;;;26.07;12.70;;;8.10;99.90;;;;;;4971242;28;20220;-68
2020/12/07 13:10:00;;;;;;;29.00;13.90;;;8.00;99.90;;;;;;4970751;28;20224;-68